sensor_id;sensor_type;location;lat;lon;timestamp;pressure;altitude;pressure_sealevel;temperature;humidity
69630;BME280;56857;52.212;5.496;2023-01-28T00:00:48;103053.53;;;3.22;100.00
69630;BME280;56857;52.212;5.496;2023-01-28T00:03:13;103065.91;;;3.19;100.00
69630;BME280;56857;52.212;5.496;2023-01-28T00:05:39;103056.28;;;3.19;100.00
69630;BME280;56857;52.212;5.496;2023-01-28T00:08:04;103063.91;;;3.24;100.00
69630;BME280;56857;52.212;5.496;2023-01-28T00:10:29;103064.72;;;3.26;100.00
69630;BME280;56857;52.212;5.496;2023-01-28T00:12:54;103068.13;;;3.28;100.00
69630;BME280;56857;52.212;5.496;2023-01-28T00:15:20;103074.28;;;3.27;100.00
69630;BME280;56857;52.212;5.496;2023-01-28T00:17:45;103070.16;;;3.21;100.00
69630;BME280;56857;52.212;5.496;2023-01-28T00:20:11;103072.91;;;3.18;100.00
69630;BME280;56857;52.212;5.496;2023-01-28T00:22:36;103067.03;;;3.13;100.00
69630;BME280;56857;52.212;5.496;2023-01-28T00:25:02;103067.81;;;3.15;100.00
69630;BME280;56857;52.212;5.496;2023-01-28T00:27:27;103069.56;;;3.15;100.00
69630;BME280;56857;52.212;5.496;2023-01-28T00:29:53;103069.78;;;3.10;100.00
69630;BME280;56857;52.212;5.496;2023-01-28T00:32:18;103078.75;;;3.05;100.00
69630;BME280;56857;52.212;5.496;2023-01-28T00:34:43;103077.22;;;2.99;100.00
69630;BME280;56857;52.212;5.496;2023-01-28T00:37:08;103072.13;;;2.96;100.00
69630;BME280;56857;52.212;5.496;2023-01-28T00:39:34;103065.91;;;2.98;100.00
69630;BME280;56857;52.212;5.496;2023-01-28T00:41:59;103066.03;;;2.95;100.00
69630;BME280;56857;52.212;5.496;2023-01-28T00:44:24;103067.94;;;2.92;100.00
69630;BME280;56857;52.212;5.496;2023-01-28T00:46:50;103075.78;;;2.92;100.00
69630;BME280;56857;52.212;5.496;2023-01-28T00:49:16;103077.56;;;2.91;100.00
69630;BME280;56857;52.212;5.496;2023-01-28T00:51:42;103078.28;;;2.95;100.00
69630;BME280;56857;52.212;5.496;2023-01-28T00:54:07;103073.97;;;2.94;100.00
69630;BME280;56857;52.212;5.496;2023-01-28T00:56:32;103070.44;;;2.95;100.00
69630;BME280;56857;52.212;5.496;2023-01-28T00:58:58;103063.38;;;2.97;100.00
69630;BME280;56857;52.212;5.496;2023-01-28T01:01:25;103058.31;;;2.92;100.00
69630;BME280;56857;52.212;5.496;2023-01-28T01:03:52;103052.34;;;2.89;100.00
69630;BME280;56857;52.212;5.496;2023-01-28T01:06:18;103055.81;;;2.89;100.00
69630;BME280;56857;52.212;5.496;2023-01-28T01:08:43;103045.28;;;2.91;100.00
69630;BME280;56857;52.212;5.496;2023-01-28T01:11:11;103048.63;;;2.94;100.00
69630;BME280;56857;52.212;5.496;2023-01-28T01:13:37;103049.47;;;2.95;100.00
69630;BME280;56857;52.212;5.496;2023-01-28T01:16:06;103050.19;;;2.98;100.00
69630;BME280;56857;52.212;5.496;2023-01-28T01:18:33;103055.38;;;3.00;100.00
69630;BME280;56857;52.212;5.496;2023-01-28T01:20:58;103061.38;;;3.02;100.00
69630;BME280;56857;52.212;5.496;2023-01-28T01:23:29;103061.38;;;3.02;100.00
69630;BME280;56857;52.212;5.496;2023-01-28T01:25:55;103061.13;;;3.08;100.00
69630;BME280;56857;52.212;5.496;2023-01-28T01:28:21;103058.56;;;3.07;100.00
69630;BME280;56857;52.212;5.496;2023-01-28T01:30:47;103061.47;;;3.00;100.00
69630;BME280;56857;52.212;5.496;2023-01-28T01:33:14;103062.03;;;2.87;100.00
69630;BME280;56857;52.212;5.496;2023-01-28T01:35:39;103062.28;;;2.81;100.00
69630;BME280;56857;52.212;5.496;2023-01-28T01:38:05;103057.91;;;2.81;100.00
69630;BME280;56857;52.212;5.496;2023-01-28T01:40:31;103061.31;;;2.83;100.00
69630;BME280;56857;52.212;5.496;2023-01-28T01:42:56;103054.28;;;2.84;100.00
69630;BME280;56857;52.212;5.496;2023-01-28T01:45:22;103066.63;;;2.82;100.00
69630;BME280;56857;52.212;5.496;2023-01-28T01:48:35;103073.75;;;2.78;100.00
69630;BME280;56857;52.212;5.496;2023-01-28T01:51:00;103084.38;;;2.75;100.00
69630;BME280;56857;52.212;5.496;2023-01-28T01:53:28;103077.22;;;2.78;100.00
69630;BME280;56857;52.212;5.496;2023-01-28T01:55:58;103082.22;;;2.85;100.00
69630;BME280;56857;52.212;5.496;2023-01-28T01:58:28;103075.19;;;2.85;100.00
69630;BME280;56857;52.212;5.496;2023-01-28T02:00:54;103071.59;;;2.88;100.00
69630;BME280;56857;52.212;5.496;2023-01-28T02:03:26;103071.66;;;2.86;100.00
69630;BME280;56857;52.212;5.496;2023-01-28T02:05:53;103079.50;;;2.86;100.00
69630;BME280;56857;52.212;5.496;2023-01-28T02:08:19;103087.31;;;2.88;100.00
69630;BME280;56857;52.212;5.496;2023-01-28T02:10:45;103089.94;;;2.88;100.00
69630;BME280;56857;52.212;5.496;2023-01-28T02:13:14;103087.50;;;2.83;100.00
69630;BME280;56857;52.212;5.496;2023-01-28T02:15:41;103080.56;;;2.82;100.00
69630;BME280;56857;52.212;5.496;2023-01-28T02:18:07;103078.06;;;2.79;100.00
69630;BME280;56857;52.212;5.496;2023-01-28T02:20:44;103084.13;;;2.81;100.00
69630;BME280;56857;52.212;5.496;2023-01-28T02:24:05;103088.63;;;2.77;100.00
69630;BME280;56857;52.212;5.496;2023-01-28T02:26:41;103095.84;;;2.71;100.00
69630;BME280;56857;52.212;5.496;2023-01-28T02:30:10;103097.13;;;2.62;100.00
69630;BME280;56857;52.212;5.496;2023-01-28T02:38:03;103093.38;;;2.68;100.00
69630;BME280;56857;52.212;5.496;2023-01-28T02:40:35;103085.59;;;2.66;100.00
69630;BME280;56857;52.212;5.496;2023-01-28T02:43:01;103096.88;;;2.68;100.00
69630;BME280;56857;52.212;5.496;2023-01-28T02:45:32;103100.25;;;2.70;100.00
69630;BME280;56857;52.212;5.496;2023-01-28T02:47:57;103091.53;;;2.70;100.00
69630;BME280;56857;52.212;5.496;2023-01-28T02:50:29;103099.47;;;2.68;100.00
69630;BME280;56857;52.212;5.496;2023-01-28T02:53:01;103104.84;;;2.65;100.00
69630;BME280;56857;52.212;5.496;2023-01-28T03:01:09;103086.31;;;2.70;100.00
69630;BME280;56857;52.212;5.496;2023-01-28T03:04:19;103083.53;;;2.74;100.00
69630;BME280;56857;52.212;5.496;2023-01-28T03:06:30;103076.56;;;2.73;100.00
69630;BME280;56857;52.212;5.496;2023-01-28T03:08:59;103073.09;;;2.73;100.00
69630;BME280;56857;52.212;5.496;2023-01-28T03:11:26;103084.41;;;2.73;100.00
69630;BME280;56857;52.212;5.496;2023-01-28T03:13:53;103083.56;;;2.73;100.00
69630;BME280;56857;52.212;5.496;2023-01-28T03:16:18;103079.97;;;2.75;100.00
69630;BME280;56857;52.212;5.496;2023-01-28T03:18:48;103081.66;;;2.76;100.00
69630;BME280;56857;52.212;5.496;2023-01-28T03:21:37;103076.25;;;2.81;100.00
69630;BME280;56857;52.212;5.496;2023-01-28T03:24:08;103078.75;;;2.84;100.00
69630;BME280;56857;52.212;5.496;2023-01-28T03:26:42;103084.97;;;2.82;100.00
69630;BME280;56857;52.212;5.496;2023-01-28T03:29:11;103083.44;;;2.76;100.00
69630;BME280;56857;52.212;5.496;2023-01-28T03:31:39;103081.63;;;2.78;100.00
69630;BME280;56857;52.212;5.496;2023-01-28T03:34:05;103083.31;;;2.79;100.00
69630;BME280;56857;52.212;5.496;2023-01-28T03:36:32;103077.22;;;2.78;100.00
69630;BME280;56857;52.212;5.496;2023-01-28T03:38:58;103077.22;;;2.78;100.00
69630;BME280;56857;52.212;5.496;2023-01-28T03:41:25;103081.66;;;2.76;100.00
69630;BME280;56857;52.212;5.496;2023-01-28T03:43:50;103083.44;;;2.76;100.00
69630;BME280;56857;52.212;5.496;2023-01-28T03:46:16;103080.78;;;2.77;100.00
69630;BME280;56857;52.212;5.496;2023-01-28T03:48:41;103078.91;;;2.79;100.00
69630;BME280;56857;52.212;5.496;2023-01-28T03:51:07;103088.44;;;2.82;100.00
69630;BME280;56857;52.212;5.496;2023-01-28T03:53:32;103084.88;;;2.83;100.00
69630;BME280;56857;52.212;5.496;2023-01-28T03:55:58;103086.47;;;2.87;100.00
69630;BME280;56857;52.212;5.496;2023-01-28T03:58:24;103081.25;;;2.87;100.00
69630;BME280;56857;52.212;5.496;2023-01-28T04:00:49;103082.97;;;2.87;100.00
69630;BME280;56857;52.212;5.496;2023-01-28T04:03:17;103086.47;;;2.87;100.00
69630;BME280;56857;52.212;5.496;2023-01-28T04:06:00;103091.63;;;2.89;100.00
69630;BME280;56857;52.212;5.496;2023-01-28T04:08:25;103088.03;;;2.91;100.00
69630;BME280;56857;52.212;5.496;2023-01-28T04:10:51;103091.50;;;2.92;100.00
69630;BME280;56857;52.212;5.496;2023-01-28T04:13:17;103092.34;;;2.92;100.00
69630;BME280;56857;52.212;5.496;2023-01-28T04:15:43;103102.19;;;2.87;100.00
69630;BME280;56857;52.212;5.496;2023-01-28T04:18:08;103092.75;;;2.83;100.00
69630;BME280;56857;52.212;5.496;2023-01-28T04:20:34;103094.38;;;2.86;100.00
69630;BME280;56857;52.212;5.496;2023-01-28T04:23:00;103098.81;;;2.84;100.00
69630;BME280;56857;52.212;5.496;2023-01-28T04:25:25;103105.97;;;2.80;100.00
69630;BME280;56857;52.212;5.496;2023-01-28T04:27:50;103111.28;;;2.78;100.00
69630;BME280;56857;52.212;5.496;2023-01-28T04:30:16;103115.72;;;2.76;100.00
69630;BME280;56857;52.212;5.496;2023-01-28T04:32:42;103123.66;;;2.75;100.00
69630;BME280;56857;52.212;5.496;2023-01-28T04:35:08;103116.63;;;2.75;100.00
69630;BME280;56857;52.212;5.496;2023-01-28T04:37:33;103122.00;;;2.72;100.00
69630;BME280;56857;52.212;5.496;2023-01-28T04:39:58;103118.59;;;2.70;100.00
69630;BME280;56857;52.212;5.496;2023-01-28T04:42:24;103119.38;;;2.72;100.00
69630;BME280;56857;52.212;5.496;2023-01-28T04:44:49;103122.84;;;2.73;100.00
69630;BME280;56857;52.212;5.496;2023-01-28T04:47:14;103125.41;;;2.74;100.00
69630;BME280;56857;52.212;5.496;2023-01-28T04:49:40;103121.16;;;2.72;100.00
69630;BME280;56857;52.212;5.496;2023-01-28T04:52:05;103116.81;;;2.71;100.00
69630;BME280;56857;52.212;5.496;2023-01-28T04:54:30;103104.63;;;2.70;100.00
69630;BME280;56857;52.212;5.496;2023-01-28T04:56:56;103112.31;;;2.74;100.00
69630;BME280;56857;52.212;5.496;2023-01-28T04:59:21;103096.41;;;2.79;100.00
69630;BME280;56857;52.212;5.496;2023-01-28T05:01:46;103091.91;;;2.83;100.00
69630;BME280;56857;52.212;5.496;2023-01-28T05:04:12;103095.34;;;2.83;100.00
69630;BME280;56857;52.212;5.496;2023-01-28T05:06:37;103097.94;;;2.85;100.00
69630;BME280;56857;52.212;5.496;2023-01-28T05:09:02;103098.69;;;2.87;100.00
69630;BME280;56857;52.212;5.496;2023-01-28T05:11:28;103098.56;;;2.90;100.00
69630;BME280;56857;52.212;5.496;2023-01-28T05:13:53;103104.56;;;2.93;100.00
69630;BME280;56857;52.212;5.496;2023-01-28T05:16:19;103103.16;;;2.85;100.00
69630;BME280;56857;52.212;5.496;2023-01-28T05:18:44;103093.72;;;2.81;100.00
69630;BME280;56857;52.212;5.496;2023-01-28T05:21:11;103090.50;;;2.74;100.00
69630;BME280;56857;52.212;5.496;2023-01-28T05:23:36;103095.09;;;2.69;100.00
69630;BME280;56857;52.212;5.496;2023-01-28T05:26:01;103095.94;;;2.69;100.00
69630;BME280;56857;52.212;5.496;2023-01-28T05:28:27;103093.19;;;2.72;100.00
69630;BME280;56857;52.212;5.496;2023-01-28T05:30:52;103098.56;;;2.69;100.00
69630;BME280;56857;52.212;5.496;2023-01-28T05:33:17;103108.44;;;2.63;100.00
69630;BME280;56857;52.212;5.496;2023-01-28T05:35:43;103102.50;;;2.58;100.00
69630;BME280;56857;52.212;5.496;2023-01-28T05:38:08;103105.97;;;2.58;100.00
69630;BME280;56857;52.212;5.496;2023-01-28T05:40:34;103105.94;;;2.60;100.00
69630;BME280;56857;52.212;5.496;2023-01-28T05:42:59;103100.63;;;2.61;100.00
69630;BME280;56857;52.212;5.496;2023-01-28T05:45:25;103103.13;;;2.64;100.00
69630;BME280;56857;52.212;5.496;2023-01-28T05:47:50;103102.09;;;2.68;100.00
69630;BME280;56857;52.212;5.496;2023-01-28T05:50:15;103112.56;;;2.68;100.00
69630;BME280;56857;52.212;5.496;2023-01-28T05:52:41;103099.34;;;2.71;100.00
69630;BME280;56857;52.212;5.496;2023-01-28T05:55:07;103100.97;;;2.74;100.00
69630;BME280;56857;52.212;5.496;2023-01-28T05:57:32;103099.16;;;2.76;100.00
69630;BME280;56857;52.212;5.496;2023-01-28T05:59:58;103099.28;;;2.73;100.00
69630;BME280;56857;52.212;5.496;2023-01-28T06:02:23;103100.25;;;2.70;100.00
69630;BME280;56857;52.212;5.496;2023-01-28T06:04:48;103101.09;;;2.71;100.00
69630;BME280;56857;52.212;5.496;2023-01-28T06:07:13;103098.56;;;2.69;100.00
69630;BME280;56857;52.212;5.496;2023-01-28T06:09:39;103109.16;;;2.66;100.00
69630;BME280;56857;52.212;5.496;2023-01-28T06:12:05;103109.41;;;2.60;100.00
69630;BME280;56857;52.212;5.496;2023-01-28T06:14:30;103117.25;;;2.60;100.00
69630;BME280;56857;52.212;5.496;2023-01-28T06:16:55;103102.28;;;2.64;100.00
69630;BME280;56857;52.212;5.496;2023-01-28T06:19:21;103111.81;;;2.65;100.00
69630;BME280;56857;52.212;5.496;2023-01-28T06:21:46;103099.78;;;2.61;100.00
69630;BME280;56857;52.212;5.496;2023-01-28T06:24:11;103102.59;;;2.56;100.00
69630;BME280;56857;52.212;5.496;2023-01-28T06:26:37;103102.75;;;2.51;100.00
69630;BME280;56857;52.212;5.496;2023-01-28T06:29:02;103104.72;;;2.46;100.00
69630;BME280;56857;52.212;5.496;2023-01-28T06:31:27;103109.16;;;2.44;100.00
69630;BME280;56857;52.212;5.496;2023-01-28T06:33:52;103105.63;;;2.45;100.00
69630;BME280;56857;52.212;5.496;2023-01-28T06:36:18;103115.94;;;2.50;100.00
69630;BME280;56857;52.212;5.496;2023-01-28T06:38:43;103124.63;;;2.50;100.00
69630;BME280;56857;52.212;5.496;2023-01-28T06:41:08;103118.59;;;2.48;100.00
69630;BME280;56857;52.212;5.496;2023-01-28T06:43:34;103120.31;;;2.49;100.00
69630;BME280;56857;52.212;5.496;2023-01-28T06:45:59;103122.13;;;2.47;100.00
69630;BME280;56857;52.212;5.496;2023-01-28T06:48:26;103117.09;;;2.43;100.00
69630;BME280;56857;52.212;5.496;2023-01-28T06:50:52;103126.69;;;2.42;100.00
69630;BME280;56857;52.212;5.496;2023-01-28T06:53:18;103126.63;;;2.44;100.00
69630;BME280;56857;52.212;5.496;2023-01-28T06:55:44;103128.28;;;2.46;100.00
69630;BME280;56857;52.212;5.496;2023-01-28T06:58:09;103143.28;;;2.43;100.00
69630;BME280;56857;52.212;5.496;2023-01-28T07:00:35;103149.59;;;2.37;100.00
69630;BME280;56857;52.212;5.496;2023-01-28T07:03:00;103140.09;;;2.35;100.00
69630;BME280;56857;52.212;5.496;2023-01-28T07:05:26;103140.13;;;2.33;100.00
69630;BME280;56857;52.212;5.496;2023-01-28T07:07:51;103138.38;;;2.34;100.00
69630;BME280;56857;52.212;5.496;2023-01-28T07:10:16;103140.19;;;2.31;100.00
69630;BME280;56857;52.212;5.496;2023-01-28T07:12:42;103135.88;;;2.30;100.00
69630;BME280;56857;52.212;5.496;2023-01-28T07:15:08;103142.97;;;2.27;100.00
69630;BME280;56857;52.212;5.496;2023-01-28T07:17:33;103144.03;;;2.23;100.00
69630;BME280;56857;52.212;5.496;2023-01-28T07:19:58;103142.22;;;2.25;100.00
69630;BME280;56857;52.212;5.496;2023-01-28T07:22:24;103140.38;;;2.27;100.00
69630;BME280;56857;52.212;5.496;2023-01-28T07:24:49;103147.31;;;2.28;100.00
69630;BME280;56857;52.212;5.496;2023-01-28T07:27:14;103136.91;;;2.26;100.00
69630;BME280;56857;52.212;5.496;2023-01-28T07:29:40;103138.00;;;2.21;100.00
69630;BME280;56857;52.212;5.496;2023-01-28T07:32:05;103147.66;;;2.19;100.00
69630;BME280;56857;52.212;5.496;2023-01-28T07:34:30;103158.13;;;2.19;100.00
69630;BME280;56857;52.212;5.496;2023-01-28T07:36:56;103157.94;;;2.23;100.00
69630;BME280;56857;52.212;5.496;2023-01-28T07:39:21;103158.75;;;2.25;100.00
69630;BME280;56857;52.212;5.496;2023-01-28T07:41:46;103152.59;;;2.26;100.00
69630;BME280;56857;52.212;5.496;2023-01-28T07:44:11;103160.28;;;2.31;100.00
69630;BME280;56857;52.212;5.496;2023-01-28T07:46:37;103168.91;;;2.33;100.00
69630;BME280;56857;52.212;5.496;2023-01-28T07:49:02;103165.34;;;2.36;100.00
69630;BME280;56857;52.212;5.496;2023-01-28T07:51:27;103163.56;;;2.36;100.00
69630;BME280;56857;52.212;5.496;2023-01-28T07:53:53;103158.22;;;2.39;100.00
69630;BME280;56857;52.212;5.496;2023-01-28T07:56:18;103167.72;;;2.42;100.00
69630;BME280;56857;52.212;5.496;2023-01-28T07:58:43;103169.56;;;2.40;100.00
69630;BME280;56857;52.212;5.496;2023-01-28T08:01:09;103167.00;;;2.38;100.00
69630;BME280;56857;52.212;5.496;2023-01-28T08:03:35;103174.00;;;2.38;100.00
69630;BME280;56857;52.212;5.496;2023-01-28T08:06:00;103167.84;;;2.39;100.00
69630;BME280;56857;52.212;5.496;2023-01-28T08:08:26;103173.03;;;2.40;100.00
69630;BME280;56857;52.212;5.496;2023-01-28T08:10:51;103167.84;;;2.39;100.00
69630;BME280;56857;52.212;5.496;2023-01-28T08:13:18;103165.19;;;2.40;100.00
69630;BME280;56857;52.212;5.496;2023-01-28T08:15:43;103167.00;;;2.38;100.00
69630;BME280;56857;52.212;5.496;2023-01-28T08:18:10;103185.28;;;2.40;100.00
69630;BME280;56857;52.212;5.496;2023-01-28T08:20:36;103175.53;;;2.43;100.00
69630;BME280;56857;52.212;5.496;2023-01-28T08:23:11;103177.16;;;2.46;100.00
69630;BME280;56857;52.212;5.496;2023-01-28T08:25:37;103180.56;;;2.48;100.00
69630;BME280;56857;52.212;5.496;2023-01-28T08:28:03;103184.13;;;2.47;100.00
69630;BME280;56857;52.212;5.496;2023-01-28T08:30:29;103181.53;;;2.45;100.00
69630;BME280;56857;52.212;5.496;2023-01-28T08:32:58;103177.00;;;2.50;100.00
69630;BME280;56857;52.212;5.496;2023-01-28T08:35:24;103182.03;;;2.55;100.00
69630;BME280;56857;52.212;5.496;2023-01-28T08:37:50;103183.03;;;2.52;100.00
69630;BME280;56857;52.212;5.496;2023-01-28T08:40:15;103184.22;;;2.44;100.00
69630;BME280;56857;52.212;5.496;2023-01-28T08:42:49;103179.97;;;2.41;100.00
69630;BME280;56857;52.212;5.496;2023-01-28T08:45:15;103193.16;;;2.38;100.00
69630;BME280;56857;52.212;5.496;2023-01-28T08:48:02;103201.13;;;2.35;100.00
69630;BME280;56857;52.212;5.496;2023-01-28T08:50:30;103198.50;;;2.35;100.00
69630;BME280;56857;52.212;5.496;2023-01-28T08:52:57;103213.38;;;2.35;100.00
69630;BME280;56857;52.212;5.496;2023-01-28T08:55:23;103223.72;;;2.38;100.00
69630;BME280;56857;52.212;5.496;2023-01-28T08:57:49;103209.72;;;2.39;100.00
69630;BME280;56857;52.212;5.496;2023-01-28T09:00:14;103212.34;;;2.39;100.00
69630;BME280;56857;52.212;5.496;2023-01-28T09:02:40;103212.41;;;2.37;100.00
69630;BME280;56857;52.212;5.496;2023-01-28T09:05:06;103217.56;;;2.39;100.00
69630;BME280;56857;52.212;5.496;2023-01-28T09:07:33;103216.56;;;2.43;100.00
69630;BME280;56857;52.212;5.496;2023-01-28T09:09:59;103209.56;;;2.43;100.00
69630;BME280;56857;52.212;5.496;2023-01-28T09:12:24;103208.63;;;2.44;100.00
69630;BME280;56857;52.212;5.496;2023-01-28T09:14:50;103214.72;;;2.45;100.00
69630;BME280;56857;52.212;5.496;2023-01-28T09:17:15;103228.63;;;2.47;100.00
69630;BME280;56857;52.212;5.496;2023-01-28T09:19:41;103226.66;;;2.52;100.00
69630;BME280;56857;52.212;5.496;2023-01-28T09:22:07;103226.63;;;2.53;100.00
69630;BME280;56857;52.212;5.496;2023-01-28T09:24:32;103231.84;;;2.53;100.00
69630;BME280;56857;52.212;5.496;2023-01-28T09:26:57;103231.66;;;2.58;100.00
69630;BME280;56857;52.212;5.496;2023-01-28T09:29:23;103232.44;;;2.62;100.00
69630;BME280;56857;52.212;5.496;2023-01-28T09:31:48;103228.69;;;2.67;100.00
69630;BME280;56857;52.212;5.496;2023-01-28T09:34:14;103244.28;;;2.70;100.00
69630;BME280;56857;52.212;5.496;2023-01-28T09:36:39;103244.13;;;2.75;100.00
69630;BME280;56857;52.212;5.496;2023-01-28T09:39:04;103246.50;;;2.81;100.00
69630;BME280;56857;52.212;5.496;2023-01-28T09:44:27;103244.50;;;2.88;100.00
69630;BME280;56857;52.212;5.496;2023-01-28T09:47:00;103244.38;;;2.91;100.00
69630;BME280;56857;52.212;5.496;2023-01-28T09:49:37;103230.31;;;2.93;100.00
69630;BME280;56857;52.212;5.496;2023-01-28T09:52:13;103238.22;;;2.92;100.00
69630;BME280;56857;52.212;5.496;2023-01-28T09:54:44;103233.19;;;2.87;100.00
69630;BME280;56857;52.212;5.496;2023-01-28T09:57:36;103241.94;;;2.86;100.00
69630;BME280;56857;52.212;5.496;2023-01-28T10:00:11;103249.97;;;2.82;100.00
69630;BME280;56857;52.212;5.496;2023-01-28T10:13:47;103251.09;;;3.40;100.00
69630;BME280;56857;52.212;5.496;2023-01-28T10:18:52;103251.13;;;3.61;100.00
69630;BME280;56857;52.212;5.496;2023-01-28T10:21:35;103243.13;;;3.64;100.00
69630;BME280;56857;52.212;5.496;2023-01-28T10:24:07;103238.56;;;3.69;100.00
69630;BME280;56857;52.212;5.496;2023-01-28T10:26:38;103245.16;;;3.78;100.00
69630;BME280;56857;52.212;5.496;2023-01-28T10:29:17;103239.78;;;3.81;100.00
69630;BME280;56857;52.212;5.496;2023-01-28T10:32:40;103236.88;;;3.87;100.00
69630;BME280;56857;52.212;5.496;2023-01-28T10:34:40;103236.63;;;3.93;100.00
69630;BME280;56857;52.212;5.496;2023-01-28T10:37:07;103237.47;;;3.93;100.00
69630;BME280;56857;52.212;5.496;2023-01-28T10:39:33;103232.47;;;3.87;100.00
69630;BME280;56857;52.212;5.496;2023-01-28T10:41:58;103238.41;;;3.92;100.00
69630;BME280;56857;52.212;5.496;2023-01-28T10:44:37;103222.16;;;4.03;100.00
69630;BME280;56857;52.212;5.496;2023-01-28T10:47:12;103217.31;;;4.14;100.00
69630;BME280;56857;52.212;5.496;2023-01-28T10:49:46;103216.19;;;4.20;100.00
69630;BME280;56857;52.212;5.496;2023-01-28T10:52:13;103226.25;;;4.29;100.00
69630;BME280;56857;52.212;5.496;2023-01-28T10:54:39;103206.69;;;4.36;100.00
69630;BME280;56857;52.212;5.496;2023-01-28T10:57:08;103203.53;;;4.47;100.00
69630;BME280;56857;52.212;5.496;2023-01-28T10:59:35;103197.28;;;4.69;100.00
69630;BME280;56857;52.212;5.496;2023-01-28T11:02:03;103187.13;;;4.97;100.00
69630;BME280;56857;52.212;5.496;2023-01-28T11:05:00;103177.16;;;5.04;100.00
69630;BME280;56857;52.212;5.496;2023-01-28T11:07:26;103175.00;;;5.12;100.00
69630;BME280;56857;52.212;5.496;2023-01-28T11:09:51;103171.78;;;5.24;100.00
69630;BME280;56857;52.212;5.496;2023-01-28T11:15:29;103150.66;;;5.43;100.00
69630;BME280;56857;52.212;5.496;2023-01-28T11:18:01;103138.06;;;5.66;100.00
69630;BME280;56857;52.212;5.496;2023-01-28T11:20:29;103137.94;;;5.85;100.00
69630;BME280;56857;52.212;5.496;2023-01-28T11:22:57;103141.53;;;5.84;100.00
69630;BME280;56857;52.212;5.496;2023-01-28T11:25:31;103138.38;;;5.77;100.00
69630;BME280;56857;52.212;5.496;2023-01-28T11:28:01;103135.38;;;6.00;100.00
69630;BME280;56857;52.212;5.496;2023-01-28T11:30:30;103125.88;;;6.30;100.00
69630;BME280;56857;52.212;5.496;2023-01-28T11:33:36;103118.13;;;6.26;100.00
69630;BME280;56857;52.212;5.496;2023-01-28T11:36:16;103112.19;;;6.23;100.00
69630;BME280;56857;52.212;5.496;2023-01-28T11:41:15;103102.66;;;6.20;100.00
69630;BME280;56857;52.212;5.496;2023-01-28T11:43:41;103110.22;;;6.26;100.00
69630;BME280;56857;52.212;5.496;2023-01-28T11:51:47;103122.47;;;6.59;100.00
69630;BME280;56857;52.212;5.496;2023-01-28T12:00:19;103142.09;;;6.54;100.00
69630;BME280;56857;52.212;5.496;2023-01-28T12:08:08;103138.16;;;6.61;100.00
69630;BME280;56857;52.212;5.496;2023-01-28T12:10:54;103125.44;;;6.53;100.00
69630;BME280;56857;52.212;5.496;2023-01-28T12:19:37;103142.56;;;6.76;100.00
69630;BME280;56857;52.212;5.496;2023-01-28T12:22:32;103153.56;;;6.68;100.00
69630;BME280;56857;52.212;5.496;2023-01-28T12:44:10;103117.56;;;6.37;98.49
69630;BME280;56857;52.212;5.496;2023-01-28T12:46:50;103117.03;;;6.31;97.28
69630;BME280;56857;52.212;5.496;2023-01-28T12:52:21;103099.44;;;6.31;95.60
69630;BME280;56857;52.212;5.496;2023-01-28T12:55:14;103089.94;;;6.29;97.49
69630;BME280;56857;52.212;5.496;2023-01-28T12:57:40;103097.16;;;6.41;98.51
69630;BME280;56857;52.212;5.496;2023-01-28T13:06:00;103055.94;;;6.70;98.66
69630;BME280;56857;52.212;5.496;2023-01-28T13:08:28;103045.09;;;6.74;99.36
69630;BME280;56857;52.212;5.496;2023-01-28T13:10:56;103054.84;;;6.88;100.00
69630;BME280;56857;52.212;5.496;2023-01-28T13:13:32;103066.13;;;7.06;100.00
69630;BME280;56857;52.212;5.496;2023-01-28T13:16:00;103061.13;;;7.16;98.37
69630;BME280;56857;52.212;5.496;2023-01-28T13:21:12;103053.41;;;7.13;98.51
69630;BME280;56857;52.212;5.496;2023-01-28T13:23:41;103057.31;;;7.06;97.55
69630;BME280;56857;52.212;5.496;2023-01-28T13:28:46;103053.44;;;6.83;98.01
69630;BME280;56857;52.212;5.496;2023-01-28T13:31:15;103046.34;;;6.69;98.60
69630;BME280;56857;52.212;5.496;2023-01-28T13:33:41;103046.53;;;6.66;100.00
69630;BME280;56857;52.212;5.496;2023-01-28T13:36:25;103055.53;;;6.62;100.00
69630;BME280;56857;52.212;5.496;2023-01-28T13:39:22;103051.84;;;6.50;100.00
69630;BME280;56857;52.212;5.496;2023-01-28T13:41:52;103062.91;;;6.41;100.00
69630;BME280;56857;52.212;5.496;2023-01-28T13:44:30;103062.47;;;6.33;100.00
69630;BME280;56857;52.212;5.496;2023-01-28T13:46:57;103056.53;;;6.29;100.00
69630;BME280;56857;52.212;5.496;2023-01-28T13:49:47;103057.06;;;6.20;100.00
69630;BME280;56857;52.212;5.496;2023-01-28T13:52:19;103054.94;;;6.11;100.00
69630;BME280;56857;52.212;5.496;2023-01-28T14:00:26;103051.94;;;5.85;100.00
69630;BME280;56857;52.212;5.496;2023-01-28T14:16:57;103087.41;;;5.62;100.00
69630;BME280;56857;52.212;5.496;2023-01-28T14:19:30;103085.78;;;5.60;100.00
69630;BME280;56857;52.212;5.496;2023-01-28T14:21:57;103077.88;;;5.60;100.00
69630;BME280;56857;52.212;5.496;2023-01-28T14:24:22;103073.72;;;5.55;100.00
69630;BME280;56857;52.212;5.496;2023-01-28T14:29:43;103067.16;;;5.47;100.00
69630;BME280;56857;52.212;5.496;2023-01-28T14:32:14;103065.09;;;5.36;100.00
69630;BME280;56857;52.212;5.496;2023-01-28T14:34:42;103070.53;;;5.33;100.00
69630;BME280;56857;52.212;5.496;2023-01-28T14:37:12;103068.97;;;5.29;100.00
69630;BME280;56857;52.212;5.496;2023-01-28T14:39:44;103073.47;;;5.27;100.00
69630;BME280;56857;52.212;5.496;2023-01-28T14:42:16;103060.34;;;5.27;100.00
69630;BME280;56857;52.212;5.496;2023-01-28T14:44:43;103063.88;;;5.26;100.00
69630;BME280;56857;52.212;5.496;2023-01-28T14:57:47;103079.69;;;5.08;100.00
69630;BME280;56857;52.212;5.496;2023-01-28T15:00:20;103083.22;;;5.07;100.00